sensor_id;sensor_type;location;lat;lon;timestamp;P1;durP1;ratioP1;P2;durP2;ratioP2
31537;SDS011;18147;51.952;6.146;2022-10-16T00:02:21;8.40;;;3.80;;
31537;SDS011;18147;51.952;6.146;2022-10-16T00:04:47;13.27;;;4.40;;
31537;SDS011;18147;51.952;6.146;2022-10-16T00:07:12;7.70;;;3.75;;
31537;SDS011;18147;51.952;6.146;2022-10-16T00:09:37;9.98;;;3.60;;
31537;SDS011;18147;51.952;6.146;2022-10-16T00:12:03;7.55;;;3.92;;
31537;SDS011;18147;51.952;6.146;2022-10-16T00:14:29;9.75;;;3.92;;
31537;SDS011;18147;51.952;6.146;2022-10-16T00:16:54;10.00;;;3.97;;
31537;SDS011;18147;51.952;6.146;2022-10-16T00:19:20;9.93;;;4.50;;
31537;SDS011;18147;51.952;6.146;2022-10-16T00:21:46;13.98;;;4.88;;
31537;SDS011;18147;51.952;6.146;2022-10-16T00:24:11;8.55;;;4.47;;
31537;SDS011;18147;51.952;6.146;2022-10-16T00:26:37;5.97;;;4.00;;
31537;SDS011;18147;51.952;6.146;2022-10-16T00:29:04;9.82;;;4.70;;
31537;SDS011;18147;51.952;6.146;2022-10-16T00:31:30;8.80;;;4.90;;
31537;SDS011;18147;51.952;6.146;2022-10-16T00:33:55;10.38;;;4.47;;
31537;SDS011;18147;51.952;6.146;2022-10-16T00:36:22;9.75;;;4.93;;
31537;SDS011;18147;51.952;6.146;2022-10-16T00:38:55;10.80;;;4.75;;
31537;SDS011;18147;51.952;6.146;2022-10-16T00:41:24;12.88;;;5.07;;
31537;SDS011;18147;51.952;6.146;2022-10-16T00:48:50;11.55;;;5.60;;
31537;SDS011;18147;51.952;6.146;2022-10-16T00:51:28;12.13;;;5.43;;
31537;SDS011;18147;51.952;6.146;2022-10-16T00:53:58;11.48;;;5.10;;
31537;SDS011;18147;51.952;6.146;2022-10-16T00:56:24;11.35;;;5.65;;
31537;SDS011;18147;51.952;6.146;2022-10-16T00:58:49;8.82;;;5.28;;
31537;SDS011;18147;51.952;6.146;2022-10-16T01:01:15;9.02;;;5.45;;
31537;SDS011;18147;51.952;6.146;2022-10-16T01:03:40;17.50;;;5.70;;
31537;SDS011;18147;51.952;6.146;2022-10-16T01:08:53;17.10;;;6.22;;
31537;SDS011;18147;51.952;6.146;2022-10-16T01:13:58;10.00;;;5.93;;
31537;SDS011;18147;51.952;6.146;2022-10-16T01:16:37;9.60;;;5.43;;
31537;SDS011;18147;51.952;6.146;2022-10-16T01:19:36;15.18;;;6.07;;
31537;SDS011;18147;51.952;6.146;2022-10-16T01:22:32;9.98;;;5.50;;
31537;SDS011;18147;51.952;6.146;2022-10-16T01:25:05;11.52;;;5.55;;
31537;SDS011;18147;51.952;6.146;2022-10-16T01:27:39;12.48;;;6.03;;
31537;SDS011;18147;51.952;6.146;2022-10-16T01:30:12;10.55;;;5.93;;
31537;SDS011;18147;51.952;6.146;2022-10-16T01:33:42;11.00;;;6.60;;
31537;SDS011;18147;51.952;6.146;2022-10-16T01:35:41;12.27;;;5.63;;
31537;SDS011;18147;51.952;6.146;2022-10-16T01:40:59;13.88;;;6.22;;
31537;SDS011;18147;51.952;6.146;2022-10-16T01:43:31;11.88;;;5.40;;
31537;SDS011;18147;51.952;6.146;2022-10-16T01:46:00;8.85;;;5.53;;
31537;SDS011;18147;51.952;6.146;2022-10-16T01:48:27;10.43;;;6.18;;
31537;SDS011;18147;51.952;6.146;2022-10-16T01:51:03;8.43;;;5.15;;
31537;SDS011;18147;51.952;6.146;2022-10-16T01:53:31;13.90;;;5.80;;
31537;SDS011;18147;51.952;6.146;2022-10-16T01:55:58;17.13;;;5.43;;
31537;SDS011;18147;51.952;6.146;2022-10-16T01:58:25;9.85;;;5.88;;
31537;SDS011;18147;51.952;6.146;2022-10-16T02:00:55;10.32;;;5.57;;
31537;SDS011;18147;51.952;6.146;2022-10-16T02:03:22;13.32;;;6.22;;
31537;SDS011;18147;51.952;6.146;2022-10-16T02:05:51;12.10;;;5.47;;
31537;SDS011;18147;51.952;6.146;2022-10-16T02:08:19;12.20;;;5.30;;
31537;SDS011;18147;51.952;6.146;2022-10-16T02:10:47;10.80;;;5.22;;
31537;SDS011;18147;51.952;6.146;2022-10-16T02:13:23;10.55;;;5.15;;
31537;SDS011;18147;51.952;6.146;2022-10-16T02:15:55;8.93;;;5.03;;
31537;SDS011;18147;51.952;6.146;2022-10-16T02:18:20;7.88;;;5.25;;
31537;SDS011;18147;51.952;6.146;2022-10-16T02:21:29;16.15;;;5.60;;
31537;SDS011;18147;51.952;6.146;2022-10-16T02:23:42;14.10;;;5.55;;
31537;SDS011;18147;51.952;6.146;2022-10-16T02:26:15;9.20;;;5.07;;
31537;SDS011;18147;51.952;6.146;2022-10-16T02:28:48;12.07;;;5.57;;
31537;SDS011;18147;51.952;6.146;2022-10-16T02:31:24;12.77;;;5.25;;
31537;SDS011;18147;51.952;6.146;2022-10-16T02:33:55;7.18;;;4.43;;
31537;SDS011;18147;51.952;6.146;2022-10-16T02:36:23;11.25;;;5.93;;
31537;SDS011;18147;51.952;6.146;2022-10-16T02:38:50;8.93;;;4.53;;
31537;SDS011;18147;51.952;6.146;2022-10-16T02:41:16;7.47;;;4.50;;
31537;SDS011;18147;51.952;6.146;2022-10-16T02:43:42;10.63;;;4.70;;
31537;SDS011;18147;51.952;6.146;2022-10-16T02:46:07;9.27;;;5.57;;
31537;SDS011;18147;51.952;6.146;2022-10-16T02:48:33;7.53;;;4.65;;
31537;SDS011;18147;51.952;6.146;2022-10-16T02:50:59;7.20;;;4.57;;
31537;SDS011;18147;51.952;6.146;2022-10-16T02:53:25;8.27;;;5.30;;
31537;SDS011;18147;51.952;6.146;2022-10-16T02:55:50;10.38;;;4.57;;
31537;SDS011;18147;51.952;6.146;2022-10-16T02:58:16;6.03;;;4.22;;
31537;SDS011;18147;51.952;6.146;2022-10-16T03:00:41;7.45;;;4.55;;
31537;SDS011;18147;51.952;6.146;2022-10-16T03:03:07;9.60;;;4.65;;
31537;SDS011;18147;51.952;6.146;2022-10-16T03:05:32;9.23;;;4.18;;
31537;SDS011;18147;51.952;6.146;2022-10-16T03:07:58;10.75;;;4.22;;
31537;SDS011;18147;51.952;6.146;2022-10-16T03:10:25;9.25;;;4.43;;
31537;SDS011;18147;51.952;6.146;2022-10-16T03:12:52;9.15;;;5.15;;
31537;SDS011;18147;51.952;6.146;2022-10-16T03:15:17;7.85;;;3.90;;
31537;SDS011;18147;51.952;6.146;2022-10-16T03:17:42;9.55;;;4.10;;
31537;SDS011;18147;51.952;6.146;2022-10-16T03:20:08;7.07;;;4.20;;
31537;SDS011;18147;51.952;6.146;2022-10-16T03:22:34;9.10;;;4.68;;
31537;SDS011;18147;51.952;6.146;2022-10-16T03:24:59;9.57;;;4.50;;
31537;SDS011;18147;51.952;6.146;2022-10-16T03:27:24;8.15;;;4.32;;
31537;SDS011;18147;51.952;6.146;2022-10-16T03:29:50;6.85;;;4.30;;
31537;SDS011;18147;51.952;6.146;2022-10-16T03:32:15;9.52;;;4.57;;
31537;SDS011;18147;51.952;6.146;2022-10-16T03:34:41;4.93;;;3.90;;
31537;SDS011;18147;51.952;6.146;2022-10-16T03:37:06;9.95;;;4.50;;
31537;SDS011;18147;51.952;6.146;2022-10-16T03:39:32;8.30;;;4.53;;
31537;SDS011;18147;51.952;6.146;2022-10-16T03:41:57;7.22;;;4.80;;
31537;SDS011;18147;51.952;6.146;2022-10-16T03:44:23;10.57;;;5.10;;
31537;SDS011;18147;51.952;6.146;2022-10-16T03:46:48;10.98;;;5.90;;
31537;SDS011;18147;51.952;6.146;2022-10-16T03:49:14;6.88;;;4.43;;
31537;SDS011;18147;51.952;6.146;2022-10-16T03:51:39;12.50;;;5.78;;
31537;SDS011;18147;51.952;6.146;2022-10-16T03:54:05;17.60;;;5.55;;
31537;SDS011;18147;51.952;6.146;2022-10-16T03:56:30;9.90;;;4.70;;
31537;SDS011;18147;51.952;6.146;2022-10-16T03:58:56;6.18;;;4.20;;
31537;SDS011;18147;51.952;6.146;2022-10-16T04:01:21;7.30;;;5.38;;
31537;SDS011;18147;51.952;6.146;2022-10-16T04:03:47;7.75;;;4.18;;
31537;SDS011;18147;51.952;6.146;2022-10-16T04:06:12;9.95;;;4.47;;
31537;SDS011;18147;51.952;6.146;2022-10-16T04:08:37;6.78;;;4.43;;
31537;SDS011;18147;51.952;6.146;2022-10-16T04:11:04;6.47;;;4.32;;
31537;SDS011;18147;51.952;6.146;2022-10-16T04:13:30;7.85;;;4.47;;
31537;SDS011;18147;51.952;6.146;2022-10-16T04:15:55;7.85;;;4.78;;
31537;SDS011;18147;51.952;6.146;2022-10-16T04:18:20;8.05;;;4.70;;
31537;SDS011;18147;51.952;6.146;2022-10-16T04:20:46;6.32;;;4.68;;
31537;SDS011;18147;51.952;6.146;2022-10-16T04:23:11;10.57;;;5.13;;
31537;SDS011;18147;51.952;6.146;2022-10-16T04:25:37;10.73;;;4.55;;
31537;SDS011;18147;51.952;6.146;2022-10-16T04:28:02;8.27;;;4.90;;
31537;SDS011;18147;51.952;6.146;2022-10-16T04:30:28;11.60;;;4.30;;
31537;SDS011;18147;51.952;6.146;2022-10-16T04:32:53;8.60;;;4.28;;
31537;SDS011;18147;51.952;6.146;2022-10-16T04:35:20;5.43;;;4.15;;
31537;SDS011;18147;51.952;6.146;2022-10-16T04:37:46;13.48;;;4.82;;
31537;SDS011;18147;51.952;6.146;2022-10-16T04:40:11;8.18;;;4.28;;
31537;SDS011;18147;51.952;6.146;2022-10-16T04:42:37;9.15;;;4.95;;
31537;SDS011;18147;51.952;6.146;2022-10-16T04:45:03;8.25;;;4.78;;
31537;SDS011;18147;51.952;6.146;2022-10-16T04:47:30;17.58;;;5.78;;
31537;SDS011;18147;51.952;6.146;2022-10-16T04:49:55;6.38;;;4.85;;
31537;SDS011;18147;51.952;6.146;2022-10-16T04:52:21;11.73;;;4.93;;
31537;SDS011;18147;51.952;6.146;2022-10-16T04:54:49;10.50;;;5.82;;
31537;SDS011;18147;51.952;6.146;2022-10-16T04:57:15;12.82;;;6.57;;
31537;SDS011;18147;51.952;6.146;2022-10-16T04:59:40;10.20;;;6.53;;
31537;SDS011;18147;51.952;6.146;2022-10-16T05:02:06;15.38;;;6.47;;
31537;SDS011;18147;51.952;6.146;2022-10-16T05:04:31;17.08;;;7.38;;
31537;SDS011;18147;51.952;6.146;2022-10-16T05:06:57;11.43;;;7.20;;
31537;SDS011;18147;51.952;6.146;2022-10-16T05:09:22;9.65;;;6.03;;
31537;SDS011;18147;51.952;6.146;2022-10-16T05:11:48;7.93;;;5.55;;
31537;SDS011;18147;51.952;6.146;2022-10-16T05:14:13;11.35;;;5.78;;
31537;SDS011;18147;51.952;6.146;2022-10-16T05:16:39;12.02;;;5.38;;
31537;SDS011;18147;51.952;6.146;2022-10-16T05:19:04;11.55;;;5.15;;
31537;SDS011;18147;51.952;6.146;2022-10-16T05:21:29;11.52;;;5.00;;
31537;SDS011;18147;51.952;6.146;2022-10-16T05:23:55;11.35;;;5.00;;
31537;SDS011;18147;51.952;6.146;2022-10-16T05:26:20;7.22;;;4.40;;
31537;SDS011;18147;51.952;6.146;2022-10-16T05:28:46;8.90;;;4.68;;
31537;SDS011;18147;51.952;6.146;2022-10-16T05:31:11;9.65;;;5.35;;
31537;SDS011;18147;51.952;6.146;2022-10-16T05:33:37;7.60;;;4.72;;
31537;SDS011;18147;51.952;6.146;2022-10-16T05:36:06;12.38;;;6.35;;
31537;SDS011;18147;51.952;6.146;2022-10-16T05:38:36;10.15;;;5.63;;
31537;SDS011;18147;51.952;6.146;2022-10-16T05:41:02;12.23;;;5.05;;
31537;SDS011;18147;51.952;6.146;2022-10-16T05:43:30;10.65;;;5.85;;
31537;SDS011;18147;51.952;6.146;2022-10-16T05:45:57;13.95;;;7.00;;
31537;SDS011;18147;51.952;6.146;2022-10-16T05:48:24;11.23;;;6.07;;
31537;SDS011;18147;51.952;6.146;2022-10-16T05:50:57;9.77;;;5.88;;
31537;SDS011;18147;51.952;6.146;2022-10-16T05:53:27;10.23;;;6.22;;
31537;SDS011;18147;51.952;6.146;2022-10-16T05:55:54;11.00;;;6.10;;
31537;SDS011;18147;51.952;6.146;2022-10-16T05:58:21;16.55;;;8.52;;
31537;SDS011;18147;51.952;6.146;2022-10-16T06:00:54;19.80;;;9.05;;
31537;SDS011;18147;51.952;6.146;2022-10-16T06:03:20;21.65;;;11.88;;
31537;SDS011;18147;51.952;6.146;2022-10-16T06:05:46;24.73;;;13.48;;
31537;SDS011;18147;51.952;6.146;2022-10-16T06:08:11;30.83;;;15.60;;
31537;SDS011;18147;51.952;6.146;2022-10-16T06:10:36;28.42;;;15.48;;
31537;SDS011;18147;51.952;6.146;2022-10-16T06:13:02;27.55;;;14.80;;
31537;SDS011;18147;51.952;6.146;2022-10-16T06:15:27;31.15;;;14.98;;
31537;SDS011;18147;51.952;6.146;2022-10-16T06:17:53;23.13;;;12.63;;
31537;SDS011;18147;51.952;6.146;2022-10-16T06:20:18;25.50;;;12.48;;
31537;SDS011;18147;51.952;6.146;2022-10-16T06:22:44;25.80;;;12.43;;
31537;SDS011;18147;51.952;6.146;2022-10-16T06:25:09;20.58;;;11.75;;
31537;SDS011;18147;51.952;6.146;2022-10-16T06:27:35;24.73;;;11.90;;
31537;SDS011;18147;51.952;6.146;2022-10-16T06:30:00;21.55;;;12.20;;
31537;SDS011;18147;51.952;6.146;2022-10-16T06:32:27;21.27;;;9.23;;
31537;SDS011;18147;51.952;6.146;2022-10-16T06:34:52;24.27;;;9.15;;
31537;SDS011;18147;51.952;6.146;2022-10-16T06:37:18;16.80;;;8.27;;
31537;SDS011;18147;51.952;6.146;2022-10-16T06:39:43;18.30;;;8.38;;
31537;SDS011;18147;51.952;6.146;2022-10-16T06:42:09;14.00;;;6.40;;
31537;SDS011;18147;51.952;6.146;2022-10-16T06:44:34;11.77;;;5.25;;
31537;SDS011;18147;51.952;6.146;2022-10-16T06:47:00;11.75;;;6.50;;
31537;SDS011;18147;51.952;6.146;2022-10-16T06:49:25;16.48;;;7.30;;
31537;SDS011;18147;51.952;6.146;2022-10-16T06:51:51;14.73;;;9.23;;
31537;SDS011;18147;51.952;6.146;2022-10-16T06:54:16;16.35;;;8.82;;
31537;SDS011;18147;51.952;6.146;2022-10-16T06:56:42;16.42;;;9.15;;
31537;SDS011;18147;51.952;6.146;2022-10-16T06:59:08;15.65;;;8.88;;
31537;SDS011;18147;51.952;6.146;2022-10-16T07:01:33;14.38;;;8.15;;
31537;SDS011;18147;51.952;6.146;2022-10-16T07:03:59;11.02;;;6.88;;
31537;SDS011;18147;51.952;6.146;2022-10-16T07:06:25;9.40;;;6.30;;
31537;SDS011;18147;51.952;6.146;2022-10-16T07:08:52;8.77;;;5.68;;
31537;SDS011;18147;51.952;6.146;2022-10-16T07:11:18;9.60;;;6.05;;
31537;SDS011;18147;51.952;6.146;2022-10-16T07:13:47;17.20;;;6.38;;
31537;SDS011;18147;51.952;6.146;2022-10-16T07:16:15;9.75;;;5.30;;
31537;SDS011;18147;51.952;6.146;2022-10-16T07:18:43;11.65;;;5.00;;
31537;SDS011;18147;51.952;6.146;2022-10-16T07:21:19;7.70;;;4.90;;
31537;SDS011;18147;51.952;6.146;2022-10-16T07:23:45;8.63;;;5.38;;
31537;SDS011;18147;51.952;6.146;2022-10-16T07:26:15;7.53;;;4.88;;
31537;SDS011;18147;51.952;6.146;2022-10-16T07:28:42;9.75;;;4.43;;
31537;SDS011;18147;51.952;6.146;2022-10-16T07:31:10;8.48;;;4.70;;
31537;SDS011;18147;51.952;6.146;2022-10-16T07:33:38;7.07;;;3.80;;
31537;SDS011;18147;51.952;6.146;2022-10-16T07:36:05;7.05;;;3.80;;
31537;SDS011;18147;51.952;6.146;2022-10-16T07:38:31;10.35;;;3.28;;
31537;SDS011;18147;51.952;6.146;2022-10-16T07:41:00;4.40;;;3.17;;
31537;SDS011;18147;51.952;6.146;2022-10-16T07:43:28;6.60;;;3.35;;
31537;SDS011;18147;51.952;6.146;2022-10-16T07:45:53;6.40;;;3.25;;
31537;SDS011;18147;51.952;6.146;2022-10-16T07:48:20;7.90;;;2.88;;
31537;SDS011;18147;51.952;6.146;2022-10-16T07:50:46;11.38;;;3.30;;
31537;SDS011;18147;51.952;6.146;2022-10-16T07:53:12;4.38;;;3.13;;
31537;SDS011;18147;51.952;6.146;2022-10-16T07:55:39;18.00;;;3.42;;
31537;SDS011;18147;51.952;6.146;2022-10-16T07:58:05;5.20;;;2.75;;
31537;SDS011;18147;51.952;6.146;2022-10-16T08:00:30;5.30;;;3.00;;
31537;SDS011;18147;51.952;6.146;2022-10-16T08:02:57;5.78;;;3.28;;
31537;SDS011;18147;51.952;6.146;2022-10-16T08:05:26;13.30;;;3.70;;
31537;SDS011;18147;51.952;6.146;2022-10-16T08:07:53;5.97;;;2.72;;
31537;SDS011;18147;51.952;6.146;2022-10-16T08:10:20;5.38;;;3.00;;
31537;SDS011;18147;51.952;6.146;2022-10-16T08:12:46;7.55;;;2.97;;
31537;SDS011;18147;51.952;6.146;2022-10-16T08:15:12;9.38;;;3.17;;
31537;SDS011;18147;51.952;6.146;2022-10-16T08:17:37;4.47;;;2.97;;
31537;SDS011;18147;51.952;6.146;2022-10-16T08:20:03;10.45;;;3.03;;
31537;SDS011;18147;51.952;6.146;2022-10-16T08:22:28;6.63;;;2.95;;
31537;SDS011;18147;51.952;6.146;2022-10-16T08:24:54;4.40;;;3.50;;
31537;SDS011;18147;51.952;6.146;2022-10-16T08:27:19;10.02;;;3.53;;
31537;SDS011;18147;51.952;6.146;2022-10-16T08:29:45;8.18;;;3.45;;
31537;SDS011;18147;51.952;6.146;2022-10-16T08:32:10;9.88;;;3.50;;
31537;SDS011;18147;51.952;6.146;2022-10-16T08:34:36;8.43;;;3.05;;
31537;SDS011;18147;51.952;6.146;2022-10-16T08:37:01;5.57;;;2.67;;
31537;SDS011;18147;51.952;6.146;2022-10-16T08:39:27;9.52;;;3.45;;
31537;SDS011;18147;51.952;6.146;2022-10-16T08:42:13;6.35;;;2.85;;
31537;SDS011;18147;51.952;6.146;2022-10-16T08:50:37;7.03;;;2.75;;
31537;SDS011;18147;51.952;6.146;2022-10-16T08:53:05;7.00;;;2.45;;
31537;SDS011;18147;51.952;6.146;2022-10-16T08:55:37;5.75;;;2.10;;
31537;SDS011;18147;51.952;6.146;2022-10-16T08:58:16;5.57;;;2.38;;
31537;SDS011;18147;51.952;6.146;2022-10-16T09:00:51;14.63;;;3.28;;
31537;SDS011;18147;51.952;6.146;2022-10-16T09:16:53;4.53;;;2.42;;
31537;SDS011;18147;51.952;6.146;2022-10-16T09:19:28;10.90;;;2.28;;
31537;SDS011;18147;51.952;6.146;2022-10-16T09:22:04;3.60;;;2.00;;
31537;SDS011;18147;51.952;6.146;2022-10-16T09:24:39;6.05;;;1.85;;
31537;SDS011;18147;51.952;6.146;2022-10-16T09:27:04;10.52;;;2.67;;
31537;SDS011;18147;51.952;6.146;2022-10-16T09:29:31;4.60;;;1.80;;
31537;SDS011;18147;51.952;6.146;2022-10-16T09:31:57;6.38;;;1.85;;
31537;SDS011;18147;51.952;6.146;2022-10-16T09:34:36;5.55;;;2.45;;
31537;SDS011;18147;51.952;6.146;2022-10-16T09:37:11;9.60;;;2.25;;
31537;SDS011;18147;51.952;6.146;2022-10-16T09:39:46;6.40;;;1.73;;
31537;SDS011;18147;51.952;6.146;2022-10-16T09:44:57;7.97;;;1.83;;
31537;SDS011;18147;51.952;6.146;2022-10-16T09:47:23;8.88;;;1.70;;
31537;SDS011;18147;51.952;6.146;2022-10-16T09:52:21;10.55;;;2.08;;
31537;SDS011;18147;51.952;6.146;2022-10-16T09:54:51;15.98;;;2.75;;
31537;SDS011;18147;51.952;6.146;2022-10-16T09:57:18;4.95;;;2.53;;
31537;SDS011;18147;51.952;6.146;2022-10-16T09:59:54;15.02;;;2.65;;
31537;SDS011;18147;51.952;6.146;2022-10-16T10:02:36;10.30;;;1.95;;
31537;SDS011;18147;51.952;6.146;2022-10-16T10:05:06;13.13;;;1.52;;
31537;SDS011;18147;51.952;6.146;2022-10-16T10:07:59;10.80;;;2.08;;
31537;SDS011;18147;51.952;6.146;2022-10-16T10:10:31;16.13;;;3.50;;
31537;SDS011;18147;51.952;6.146;2022-10-16T10:12:59;6.30;;;2.20;;
31537;SDS011;18147;51.952;6.146;2022-10-16T10:15:25;5.90;;;2.35;;
31537;SDS011;18147;51.952;6.146;2022-10-16T10:17:58;10.55;;;1.63;;
31537;SDS011;18147;51.952;6.146;2022-10-16T10:20:27;9.95;;;2.75;;
31537;SDS011;18147;51.952;6.146;2022-10-16T10:22:56;7.75;;;2.15;;
31537;SDS011;18147;51.952;6.146;2022-10-16T10:25:39;10.55;;;1.73;;
31537;SDS011;18147;51.952;6.146;2022-10-16T10:28:24;9.07;;;1.88;;
31537;SDS011;18147;51.952;6.146;2022-10-16T10:31:21;12.25;;;3.03;;
31537;SDS011;18147;51.952;6.146;2022-10-16T10:36:46;11.05;;;1.98;;
31537;SDS011;18147;51.952;6.146;2022-10-16T10:39:28;12.48;;;2.25;;
31537;SDS011;18147;51.952;6.146;2022-10-16T10:55:20;12.98;;;3.78;;
31537;SDS011;18147;51.952;6.146;2022-10-16T10:58:26;9.88;;;2.63;;
31537;SDS011;18147;51.952;6.146;2022-10-16T11:07:10;7.40;;;2.75;;
31537;SDS011;18147;51.952;6.146;2022-10-16T11:09:47;7.05;;;1.77;;
31537;SDS011;18147;51.952;6.146;2022-10-16T11:12:27;7.05;;;1.60;;
31537;SDS011;18147;51.952;6.146;2022-10-16T11:17:51;12.63;;;2.10;;
31537;SDS011;18147;51.952;6.146;2022-10-16T11:20:26;5.68;;;2.17;;
31537;SDS011;18147;51.952;6.146;2022-10-16T11:22:58;15.25;;;3.30;;
31537;SDS011;18147;51.952;6.146;2022-10-16T11:25:30;10.48;;;2.88;;
31537;SDS011;18147;51.952;6.146;2022-10-16T11:27:59;14.57;;;2.83;;
31537;SDS011;18147;51.952;6.146;2022-10-16T11:30:56;5.30;;;1.70;;
31537;SDS011;18147;51.952;6.146;2022-10-16T11:36:14;6.07;;;1.95;;
31537;SDS011;18147;51.952;6.146;2022-10-16T11:41:44;10.18;;;1.73;;
31537;SDS011;18147;51.952;6.146;2022-10-16T11:49:33;11.07;;;2.08;;
31537;SDS011;18147;51.952;6.146;2022-10-16T11:52:20;8.48;;;1.88;;
31537;SDS011;18147;51.952;6.146;2022-10-16T11:55:01;10.38;;;2.42;;
31537;SDS011;18147;51.952;6.146;2022-10-16T11:57:36;10.25;;;2.58;;
31537;SDS011;18147;51.952;6.146;2022-10-16T12:00:09;11.10;;;2.10;;
31537;SDS011;18147;51.952;6.146;2022-10-16T12:02:50;13.43;;;2.95;;
31537;SDS011;18147;51.952;6.146;2022-10-16T12:08:25;7.78;;;1.90;;
31537;SDS011;18147;51.952;6.146;2022-10-16T12:10:52;8.30;;;2.50;;
31537;SDS011;18147;51.952;6.146;2022-10-16T12:18:44;14.10;;;2.03;;
31537;SDS011;18147;51.952;6.146;2022-10-16T12:21:12;9.90;;;3.03;;
31537;SDS011;18147;51.952;6.146;2022-10-16T12:23:51;11.75;;;2.75;;
31537;SDS011;18147;51.952;6.146;2022-10-16T12:26:25;9.88;;;1.60;;
31537;SDS011;18147;51.952;6.146;2022-10-16T12:28:54;14.77;;;2.20;;
31537;SDS011;18147;51.952;6.146;2022-10-16T12:31:21;11.85;;;2.03;;
31537;SDS011;18147;51.952;6.146;2022-10-16T12:33:58;9.38;;;1.80;;
31537;SDS011;18147;51.952;6.146;2022-10-16T12:36:32;14.48;;;1.80;;
31537;SDS011;18147;51.952;6.146;2022-10-16T12:38:59;12.07;;;2.17;;
31537;SDS011;18147;51.952;6.146;2022-10-16T12:41:30;11.38;;;2.10;;
31537;SDS011;18147;51.952;6.146;2022-10-16T12:43:57;13.23;;;3.45;;
31537;SDS011;18147;51.952;6.146;2022-10-16T12:46:44;11.52;;;2.08;;
31537;SDS011;18147;51.952;6.146;2022-10-16T12:51:37;9.48;;;1.77;;
31537;SDS011;18147;51.952;6.146;2022-10-16T13:01:51;10.77;;;2.28;;
31537;SDS011;18147;51.952;6.146;2022-10-16T13:15:50;14.20;;;3.00;;
31537;SDS011;18147;51.952;6.146;2022-10-16T13:23:26;10.07;;;2.35;;
31537;SDS011;18147;51.952;6.146;2022-10-16T13:26:21;8.57;;;2.08;;
31537;SDS011;18147;51.952;6.146;2022-10-16T13:28:58;5.30;;;2.47;;
31537;SDS011;18147;51.952;6.146;2022-10-16T13:31:26;7.13;;;1.70;;
31537;SDS011;18147;51.952;6.146;2022-10-16T13:33:54;5.65;;;2.13;;
31537;SDS011;18147;51.952;6.146;2022-10-16T13:36:27;10.00;;;2.28;;
31537;SDS011;18147;51.952;6.146;2022-10-16T13:41:35;11.23;;;2.85;;
31537;SDS011;18147;51.952;6.146;2022-10-16T13:44:01;9.45;;;2.22;;
31537;SDS011;18147;51.952;6.146;2022-10-16T13:46:27;5.30;;;1.40;;
31537;SDS011;18147;51.952;6.146;2022-10-16T13:49:05;9.77;;;2.65;;
31537;SDS011;18147;51.952;6.146;2022-10-16T13:51:38;7.90;;;1.67;;
31537;SDS011;18147;51.952;6.146;2022-10-16T13:54:04;8.38;;;2.42;;
31537;SDS011;18147;51.952;6.146;2022-10-16T13:56:30;8.68;;;2.50;;
31537;SDS011;18147;51.952;6.146;2022-10-16T13:58:58;12.65;;;2.85;;
31537;SDS011;18147;51.952;6.146;2022-10-16T14:04:01;8.10;;;1.75;;
31537;SDS011;18147;51.952;6.146;2022-10-16T14:06:29;16.50;;;3.65;;
31537;SDS011;18147;51.952;6.146;2022-10-16T14:11:46;10.63;;;1.92;;
31537;SDS011;18147;51.952;6.146;2022-10-16T14:14:16;7.10;;;1.73;;
31537;SDS011;18147;51.952;6.146;2022-10-16T14:16:42;8.27;;;1.83;;
31537;SDS011;18147;51.952;6.146;2022-10-16T14:19:30;5.93;;;1.38;;
31537;SDS011;18147;51.952;6.146;2022-10-16T14:21:54;11.43;;;2.28;;
31537;SDS011;18147;51.952;6.146;2022-10-16T14:26:59;7.25;;;1.63;;
31537;SDS011;18147;51.952;6.146;2022-10-16T14:29:26;10.43;;;1.80;;
31537;SDS011;18147;51.952;6.146;2022-10-16T14:31:54;10.60;;;1.80;;
31537;SDS011;18147;51.952;6.146;2022-10-16T14:34:22;8.68;;;2.90;;
31537;SDS011;18147;51.952;6.146;2022-10-16T14:36:59;7.15;;;2.13;;
31537;SDS011;18147;51.952;6.146;2022-10-16T14:39:32;11.57;;;1.88;;
31537;SDS011;18147;51.952;6.146;2022-10-16T14:41:58;11.38;;;2.40;;
31537;SDS011;18147;51.952;6.146;2022-10-16T14:44:31;5.93;;;1.67;;
31537;SDS011;18147;51.952;6.146;2022-10-16T14:46:58;11.52;;;2.88;;
31537;SDS011;18147;51.952;6.146;2022-10-16T14:49:31;8.05;;;1.73;;
31537;SDS011;18147;51.952;6.146;2022-10-16T14:51:56;15.27;;;2.35;;
31537;SDS011;18147;51.952;6.146;2022-10-16T14:54:22;12.65;;;2.10;;
31537;SDS011;18147;51.952;6.146;2022-10-16T14:56:49;7.72;;;2.20;;
31537;SDS011;18147;51.952;6.146;2022-10-16T14:59:18;8.20;;;1.95;;
31537;SDS011;18147;51.952;6.146;2022-10-16T15:01:44;8.23;;;1.65;;
31537;SDS011;18147;51.952;6.146;2022-10-16T15:04:11;4.93;;;1.73;;
31537;SDS011;18147;51.952;6.146;2022-10-16T15:06:37;6.32;;;1.92;;
31537;SDS011;18147;51.952;6.146;2022-10-16T15:09:03;13.52;;;2.42;;
31537;SDS011;18147;51.952;6.146;2022-10-16T15:11:29;10.20;;;3.03;;
31537;SDS011;18147;51.952;6.146;2022-10-16T15:13:57;8.77;;;1.98;;
31537;SDS011;18147;51.952;6.146;2022-10-16T15:16:23;11.85;;;2.10;;
31537;SDS011;18147;51.952;6.146;2022-10-16T15:18:48;6.95;;;1.45;;
31537;SDS011;18147;51.952;6.146;2022-10-16T15:21:21;8.73;;;1.85;;
31537;SDS011;18147;51.952;6.146;2022-10-16T15:23:50;4.50;;;2.17;;
31537;SDS011;18147;51.952;6.146;2022-10-16T15:26:16;4.95;;;1.30;;
31537;SDS011;18147;51.952;6.146;2022-10-16T15:28:41;6.32;;;2.15;;
31537;SDS011;18147;51.952;6.146;2022-10-16T15:31:06;15.80;;;2.35;;
31537;SDS011;18147;51.952;6.146;2022-10-16T15:33:32;4.35;;;1.35;;
31537;SDS011;18147;51.952;6.146;2022-10-16T15:35:59;6.45;;;1.58;;
31537;SDS011;18147;51.952;6.146;2022-10-16T15:38:25;6.53;;;1.67;;
31537;SDS011;18147;51.952;6.146;2022-10-16T15:40:52;14.70;;;2.83;;
31537;SDS011;18147;51.952;6.146;2022-10-16T15:43:17;12.73;;;1.65;;
31537;SDS011;18147;51.952;6.146;2022-10-16T15:45:44;12.85;;;2.08;;
31537;SDS011;18147;51.952;6.146;2022-10-16T15:48:10;12.07;;;2.60;;
31537;SDS011;18147;51.952;6.146;2022-10-16T15:50:37;10.30;;;2.08;;
31537;SDS011;18147;51.952;6.146;2022-10-16T15:53:03;12.48;;;2.67;;
31537;SDS011;18147;51.952;6.146;2022-10-16T15:55:29;10.70;;;1.80;;
31537;SDS011;18147;51.952;6.146;2022-10-16T15:57:54;8.95;;;2.92;;
31537;SDS011;18147;51.952;6.146;2022-10-16T16:00:20;9.65;;;2.67;;
31537;SDS011;18147;51.952;6.146;2022-10-16T16:02:53;11.40;;;3.17;;
31537;SDS011;18147;51.952;6.146;2022-10-16T16:07:45;10.82;;;3.35;;
31537;SDS011;18147;51.952;6.146;2022-10-16T16:10:11;12.45;;;4.10;;
31537;SDS011;18147;51.952;6.146;2022-10-16T16:12:37;12.38;;;4.55;;
31537;SDS011;18147;51.952;6.146;2022-10-16T16:15:06;11.82;;;4.28;;
31537;SDS011;18147;51.952;6.146;2022-10-16T16:17:34;10.73;;;4.93;;
31537;SDS011;18147;51.952;6.146;2022-10-16T16:20:00;13.18;;;4.30;;
31537;SDS011;18147;51.952;6.146;2022-10-16T16:22:26;14.93;;;4.20;;
31537;SDS011;18147;51.952;6.146;2022-10-16T16:24:52;10.27;;;3.30;;
31537;SDS011;18147;51.952;6.146;2022-10-16T16:27:17;12.05;;;3.90;;
31537;SDS011;18147;51.952;6.146;2022-10-16T16:29:46;8.13;;;2.70;;
31537;SDS011;18147;51.952;6.146;2022-10-16T16:32:12;11.48;;;2.78;;
31537;SDS011;18147;51.952;6.146;2022-10-16T16:34:37;8.43;;;3.55;;
31537;SDS011;18147;51.952;6.146;2022-10-16T16:37:03;15.35;;;3.13;;
31537;SDS011;18147;51.952;6.146;2022-10-16T16:39:28;12.55;;;2.88;;
31537;SDS011;18147;51.952;6.146;2022-10-16T16:41:55;14.10;;;3.80;;
31537;SDS011;18147;51.952;6.146;2022-10-16T16:44:21;9.80;;;2.90;;
31537;SDS011;18147;51.952;6.146;2022-10-16T16:46:46;9.75;;;3.05;;
31537;SDS011;18147;51.952;6.146;2022-10-16T16:49:13;12.40;;;3.47;;
31537;SDS011;18147;51.952;6.146;2022-10-16T16:51:39;11.35;;;2.95;;
31537;SDS011;18147;51.952;6.146;2022-10-16T16:54:04;8.73;;;2.45;;